createdAt,value
2019-05-13T00:01:54.123Z,100973.25
2019-05-13T00:04:24.345Z,100979.31
2019-05-13T00:06:57.770Z,100982.32
2019-05-13T00:09:33.911Z,100979.80
2019-05-13T00:12:04.596Z,100982.14
2019-05-13T00:14:35.716Z,100974.53
2019-05-13T00:17:05.727Z,100977.58
2019-05-13T00:19:34.904Z,100978.11
2019-05-13T00:22:04.153Z,100979.02
2019-05-13T00:24:34.331Z,100976.14
2019-05-13T00:27:05.541Z,100971.72
2019-05-13T00:29:36.161Z,100969.52
2019-05-13T00:32:06.538Z,100975.09
2019-05-13T00:34:39.201Z,100974.47
2019-05-13T00:37:11.734Z,100972.05
2019-05-13T00:39:40.137Z,100975.21
2019-05-13T00:42:09.734Z,100984.27
2019-05-13T00:44:39.218Z,100986.14
2019-05-13T00:47:08.417Z,100990.95
2019-05-13T00:49:38.185Z,100987.03
2019-05-13T00:52:07.686Z,100991.78
2019-05-13T00:54:37.675Z,100989.98
2019-05-13T00:57:07.409Z,100991.36
2019-05-13T00:59:36.580Z,100991.56
2019-05-13T01:02:06.024Z,100997.08
2019-05-13T01:04:38.007Z,100995.80
2019-05-13T01:07:25.365Z,100995.44
2019-05-13T01:09:45.765Z,100992.36
2019-05-13T01:12:15.264Z,100996.73
2019-05-13T01:14:44.585Z,100994.61
2019-05-13T01:17:14.297Z,100993.64
2019-05-13T01:19:46.185Z,100996.53
2019-05-13T01:22:15.353Z,100995.21
2019-05-13T01:24:51.270Z,100996.53
2019-05-13T01:27:23.931Z,100991.23
2019-05-13T01:29:53.603Z,101000.48
2019-05-13T01:32:23.829Z,100993.23
2019-05-13T01:34:54.001Z,100993.70
2019-05-13T01:37:38.823Z,100992.00
2019-05-13T01:39:55.236Z,100988.38
2019-05-13T01:42:25.467Z,100997.50
2019-05-13T01:44:54.677Z,100996.27
2019-05-13T01:47:24.221Z,100991.09
2019-05-13T01:49:54.325Z,100997.05
2019-05-13T01:52:23.847Z,100996.00
2019-05-13T01:54:54.350Z,101000.72
2019-05-13T01:57:25.127Z,101000.25
2019-05-13T01:59:55.425Z,101000.16
2019-05-13T02:02:28.130Z,101002.19
2019-05-13T02:04:59.611Z,101005.80
2019-05-13T02:07:29.855Z,101008.44
2019-05-13T02:10:00.419Z,101009.27
2019-05-13T02:12:30.343Z,101006.97
2019-05-13T02:14:59.803Z,101007.84
2019-05-13T02:17:31.102Z,101012.83
2019-05-13T02:20:00.312Z,101008.46
2019-05-13T02:22:34.389Z,101006.13
2019-05-13T02:25:08.004Z,101004.34
2019-05-13T02:27:37.937Z,101007.45
2019-05-13T02:30:08.067Z,101003.45
2019-05-13T02:32:37.792Z,101008.31
2019-05-13T02:35:06.998Z,101003.73
2019-05-13T02:37:38.207Z,101016.38
2019-05-13T02:40:07.739Z,101016.83
2019-05-13T02:42:43.680Z,101016.78
2019-05-13T02:45:13.407Z,101017.46
2019-05-13T02:47:45.331Z,101017.58
2019-05-13T02:50:16.378Z,101019.47
2019-05-13T02:52:52.963Z,101015.67
2019-05-13T02:55:22.396Z,101017.80
2019-05-13T02:57:52.842Z,101015.27
2019-05-13T03:00:23.668Z,101008.93
2019-05-13T03:02:53.208Z,101000.02
2019-05-13T03:05:23.018Z,101003.41
2019-05-13T03:07:53.227Z,100999.72
2019-05-13T03:10:23.297Z,101001.92
2019-05-13T03:12:56.024Z,101000.22
2019-05-13T03:15:42.836Z,101001.47
2019-05-13T03:18:13.474Z,101007.22
2019-05-13T03:20:44.204Z,101009.52
2019-05-13T03:23:14.042Z,101013.98
2019-05-13T03:25:43.238Z,101016.09
2019-05-13T03:28:16.282Z,101023.13
2019-05-13T03:30:46.484Z,101030.95
2019-05-13T03:33:19.925Z,101029.85
2019-05-13T03:35:55.847Z,101044.41
2019-05-13T03:38:25.067Z,101043.77
2019-05-13T03:40:57.118Z,101053.55
2019-05-13T03:43:32.316Z,101053.23
2019-05-13T03:46:03.572Z,101060.85
2019-05-13T03:48:35.681Z,101059.88
2019-05-13T03:51:05.232Z,101061.27
2019-05-13T03:53:34.688Z,101056.45
2019-05-13T03:56:04.370Z,101058.11
2019-05-13T03:58:33.795Z,101065.45
2019-05-13T04:01:03.313Z,101065.38
2019-05-13T04:03:36.923Z,101063.58
2019-05-13T04:06:06.810Z,101068.19
2019-05-13T04:08:37.388Z,101068.69
2019-05-13T04:11:07.842Z,101067.45
2019-05-13T04:13:37.337Z,101081.52
2019-05-13T04:16:06.547Z,101084.06
2019-05-13T04:18:35.980Z,101090.26
2019-05-13T04:21:05.474Z,101086.95
2019-05-13T04:23:36.031Z,101094.02
2019-05-13T04:26:05.707Z,101097.92
2019-05-13T04:28:35.476Z,101100.47
2019-05-13T04:31:05.203Z,101103.99
2019-05-13T04:33:34.958Z,101103.48
2019-05-13T04:36:05.080Z,101095.17
2019-05-13T04:38:34.794Z,101103.42
2019-05-13T04:41:04.337Z,101102.43
2019-05-13T04:43:34.717Z,101098.89
2019-05-13T04:46:04.502Z,101100.14
2019-05-13T04:48:39.108Z,101100.02
2019-05-13T04:51:13.207Z,101099.02
2019-05-13T04:53:42.784Z,101103.67
2019-05-13T04:56:14.094Z,101098.38
2019-05-13T04:58:43.848Z,101104.39
2019-05-13T05:02:13.296Z,101117.44
2019-05-13T05:04:55.413Z,101117.86
2019-05-13T05:08:12.012Z,101119.61
2019-05-13T05:11:13.054Z,101116.45
2019-05-13T05:14:22.420Z,101125.42
2019-05-13T05:17:52.188Z,101121.97
2019-05-13T05:20:36.883Z,101123.24
2019-05-13T05:23:48.022Z,101122.25
2019-05-13T05:26:52.162Z,101124.98
2019-05-13T05:29:53.829Z,101129.77
2019-05-13T05:32:39.018Z,101130.88
2019-05-13T05:35:46.835Z,101127.12
2019-05-13T05:38:46.138Z,101131.82
2019-05-13T05:41:21.458Z,101141.20
2019-05-13T05:43:53.898Z,101140.22
2019-05-13T05:46:25.757Z,101150.81
2019-05-13T05:48:55.439Z,101146.82
2019-05-13T05:51:27.097Z,101149.05
2019-05-13T05:53:58.034Z,101149.34
2019-05-13T05:56:32.480Z,101150.64
2019-05-13T05:59:04.047Z,101140.66
2019-05-13T06:01:37.192Z,101153.16
2019-05-13T06:04:05.719Z,101145.34
2019-05-13T06:06:36.022Z,101146.95
2019-05-13T06:09:06.542Z,101151.84
2019-05-13T06:11:37.290Z,101148.42
2019-05-13T06:14:13.587Z,101148.23
2019-05-13T06:16:43.359Z,101158.03
2019-05-13T06:19:13.548Z,101149.94
2019-05-13T06:21:43.078Z,101158.13
2019-05-13T06:24:14.774Z,101155.08
2019-05-13T06:26:44.514Z,101161.25
2019-05-13T06:29:18.030Z,101154.45
2019-05-13T06:31:48.331Z,101150.36
2019-05-13T06:34:18.165Z,101151.67
2019-05-13T06:36:47.373Z,101148.59
2019-05-13T06:39:17.295Z,101152.55
2019-05-13T06:41:46.764Z,101150.56
2019-05-13T06:44:16.518Z,101156.70
2019-05-13T06:46:46.410Z,101156.77
2019-05-13T06:49:17.725Z,101153.43
2019-05-13T06:51:49.119Z,101156.91
2019-05-13T06:54:18.319Z,101154.36
2019-05-13T06:56:48.027Z,101153.36
2019-05-13T06:59:17.192Z,101146.22
2019-05-13T07:01:47.736Z,101147.67
2019-05-13T07:04:18.053Z,101148.20
2019-05-13T07:06:48.452Z,101146.14
2019-05-13T07:09:18.174Z,101144.53
2019-05-13T07:11:47.768Z,101135.03
2019-05-13T07:14:16.925Z,101136.50
2019-05-13T07:16:46.678Z,101133.00
2019-05-13T07:19:16.090Z,101137.09
2019-05-13T07:21:45.837Z,101130.91
2019-05-13T07:24:15.654Z,101129.63
2019-05-13T07:26:45.410Z,101129.89
2019-05-13T07:29:15.483Z,101137.23
2019-05-13T07:31:49.025Z,101142.70
2019-05-13T07:34:24.090Z,101141.28
2019-05-13T07:37:04.766Z,101148.78
2019-05-13T07:39:33.925Z,101137.22
2019-05-13T07:42:05.941Z,101144.12
2019-05-13T07:44:34.961Z,101137.33
2019-05-13T07:47:04.444Z,101129.66
2019-05-13T07:49:33.738Z,101134.86
2019-05-13T07:52:06.379Z,101130.56
2019-05-13T07:54:36.067Z,101123.75
2019-05-13T07:57:08.366Z,101127.92
2019-05-13T07:59:46.537Z,101128.64
2019-05-13T08:02:17.087Z,101136.58
2019-05-13T08:04:52.983Z,101131.45
2019-05-13T08:07:25.867Z,101133.00
2019-05-13T08:10:00.128Z,101129.49
2019-05-13T08:12:31.912Z,101132.68
2019-05-13T08:15:03.466Z,101134.56
2019-05-13T08:17:33.070Z,101131.56
2019-05-13T08:20:13.097Z,101131.69
2019-05-13T08:22:42.680Z,101124.31
2019-05-13T08:25:13.042Z,101120.97
2019-05-13T08:27:42.520Z,101121.93
2019-05-13T08:30:13.029Z,101125.91
2019-05-13T08:32:42.591Z,101119.20
2019-05-13T08:35:13.499Z,101116.97
2019-05-13T08:37:44.527Z,101108.69
2019-05-13T08:40:19.949Z,101109.27
2019-05-13T08:42:47.494Z,101109.95
2019-05-13T08:45:17.065Z,101102.92
2019-05-13T08:47:46.270Z,101106.58
2019-05-13T08:50:15.698Z,101104.13
2019-05-13T08:52:44.911Z,101097.22
2019-05-13T08:55:16.264Z,101093.98
2019-05-13T08:57:45.939Z,101101.40
2019-05-13T09:00:18.919Z,101099.14
2019-05-13T09:02:48.360Z,101097.38
2019-05-13T09:05:17.924Z,101097.30
2019-05-13T09:07:51.747Z,101098.48
2019-05-13T09:10:22.846Z,101098.42
2019-05-13T09:12:52.333Z,101094.66
2019-05-13T09:15:22.466Z,101093.33
2019-05-13T09:17:54.317Z,101091.44
2019-05-13T09:20:25.224Z,101089.06
2019-05-13T09:22:55.055Z,101090.64
2019-05-13T09:25:24.750Z,101088.55
2019-05-13T09:27:58.391Z,101087.25
2019-05-13T09:30:27.610Z,101089.74
2019-05-13T09:32:57.529Z,101086.47
2019-05-13T09:35:26.719Z,101081.36
2019-05-13T09:38:03.234Z,101084.11
2019-05-13T09:40:31.607Z,101084.84
2019-05-13T09:43:02.585Z,101081.56
2019-05-13T09:45:33.485Z,101078.95
2019-05-13T09:48:02.761Z,101078.50
2019-05-13T09:50:35.935Z,101075.29
2019-05-13T09:53:02.898Z,101069.66
2019-05-13T09:55:32.671Z,101077.19
2019-05-13T09:58:02.632Z,101075.35
2019-05-13T10:00:32.592Z,101068.66
2019-05-13T10:03:02.248Z,101065.34
2019-05-13T10:05:31.994Z,101058.88
2019-05-13T10:08:02.456Z,101063.70
2019-05-13T10:10:32.113Z,101060.17
2019-05-13T10:13:09.348Z,101060.27
2019-05-13T10:15:32.959Z,101055.62
2019-05-13T10:18:02.506Z,101046.27
2019-05-13T10:20:44.590Z,101052.00
2019-05-13T10:23:15.171Z,101049.02
2019-05-13T10:25:46.102Z,101044.94
2019-05-13T10:28:15.663Z,101042.50
2019-05-13T10:30:46.296Z,101048.34
2019-05-13T10:33:15.575Z,101040.68
2019-05-13T10:35:45.416Z,101032.53
2019-05-13T10:38:15.145Z,101037.23
2019-05-13T10:40:45.124Z,101028.78
2019-05-13T10:43:29.917Z,101021.94
2019-05-13T10:45:46.581Z,101022.60
2019-05-13T10:48:22.007Z,101023.84
2019-05-13T10:50:55.509Z,101022.27
2019-05-13T10:53:25.277Z,101020.52
2019-05-13T10:55:55.503Z,101020.41
2019-05-13T10:58:24.912Z,101012.11
2019-05-13T11:01:02.713Z,101017.20
2019-05-13T11:03:34.557Z,101005.30
2019-05-13T11:06:04.724Z,101005.33
2019-05-13T11:08:34.210Z,101001.70
2019-05-13T11:11:10.222Z,101005.45
2019-05-13T11:13:58.043Z,101000.20
2019-05-13T11:16:13.715Z,101005.95
2019-05-13T11:18:47.518Z,100991.14
2019-05-13T11:21:16.773Z,100990.66
2019-05-13T11:23:47.307Z,100994.61
2019-05-13T11:26:17.052Z,100993.25
2019-05-13T11:28:46.728Z,100999.47
2019-05-13T11:31:15.995Z,100989.53
2019-05-13T11:33:45.273Z,100975.64
2019-05-13T11:36:19.114Z,100977.36
2019-05-13T11:38:47.518Z,100977.86
2019-05-13T11:41:17.452Z,100981.09
2019-05-13T11:44:09.275Z,100978.66
2019-05-13T11:46:25.624Z,100968.42
2019-05-13T11:49:07.013Z,100961.89
2019-05-13T11:51:36.196Z,100959.55
2019-05-13T11:54:06.936Z,100954.17
2019-05-13T11:56:36.841Z,100953.37
2019-05-13T11:59:08.311Z,100948.48
2019-05-13T12:01:38.516Z,100931.28
2019-05-13T12:04:10.090Z,100944.05
2019-05-13T12:06:47.893Z,100942.47
2019-05-13T12:09:13.192Z,100933.52
2019-05-13T12:11:45.013Z,100935.37
2019-05-13T12:14:39.178Z,100931.58
2019-05-13T12:16:52.396Z,100930.06
2019-05-13T12:19:24.411Z,100929.12
2019-05-13T12:21:55.526Z,100927.84
2019-05-13T12:24:26.272Z,100931.13
2019-05-13T12:26:57.821Z,100932.70
2019-05-13T12:29:27.019Z,100931.43
2019-05-13T12:31:57.874Z,100924.33
2019-05-13T12:34:27.119Z,100918.33
2019-05-13T12:36:56.312Z,100912.98
2019-05-13T12:39:26.840Z,100916.36
2019-05-13T12:41:57.338Z,100924.58
2019-05-13T12:44:26.810Z,100921.20
2019-05-13T12:46:56.698Z,100913.01
2019-05-13T12:49:43.453Z,100917.83
2019-05-13T12:52:13.452Z,100920.50
2019-05-13T12:54:44.551Z,100908.80
2019-05-13T12:57:17.910Z,100910.02
2019-05-13T12:59:47.204Z,100909.95
2019-05-13T13:02:18.682Z,100902.42
2019-05-13T13:05:08.793Z,100896.28
2019-05-13T13:07:19.556Z,100902.73
2019-05-13T13:09:53.551Z,100892.98
2019-05-13T13:12:29.591Z,100893.31
2019-05-13T13:14:54.584Z,100890.95
2019-05-13T13:17:24.424Z,100888.42
2019-05-13T13:20:09.118Z,100883.41
2019-05-13T13:22:35.632Z,100894.52
2019-05-13T13:25:13.015Z,100891.81
2019-05-13T13:28:09.824Z,100883.70
2019-05-13T13:30:14.489Z,100876.09
2019-05-13T13:32:45.401Z,100865.75
2019-05-13T13:35:15.785Z,100858.69
2019-05-13T13:37:46.241Z,100869.00
2019-05-13T13:40:24.489Z,100858.88
2019-05-13T13:42:47.242Z,100867.30
2019-05-13T13:45:16.854Z,100857.00
2019-05-13T13:47:46.306Z,100856.78
2019-05-13T13:50:16.044Z,100854.25
2019-05-13T13:52:45.968Z,100848.91
2019-05-13T13:55:16.696Z,100856.89
2019-05-13T13:57:46.578Z,100858.88
2019-05-13T14:00:32.818Z,100858.09
2019-05-13T14:02:47.072Z,100856.02
2019-05-13T14:05:16.815Z,100852.42
2019-05-13T14:07:46.270Z,100846.50
2019-05-13T14:10:16.374Z,100846.00
2019-05-13T14:12:46.785Z,100849.63
2019-05-13T14:15:17.752Z,100842.48
2019-05-13T14:17:47.559Z,100840.81
2019-05-13T14:20:17.126Z,100846.17
2019-05-13T14:22:46.275Z,100841.54
2019-05-13T14:25:18.019Z,100833.80
2019-05-13T14:27:47.179Z,100828.48
2019-05-13T14:30:16.673Z,100833.94
2019-05-13T14:32:47.285Z,100830.92
2019-05-13T14:35:16.465Z,100824.79
2019-05-13T14:37:45.655Z,100823.32
2019-05-13T14:40:15.068Z,100824.80
2019-05-13T14:42:44.229Z,100831.27
2019-05-13T14:45:13.488Z,100820.49
2019-05-13T14:47:43.232Z,100817.63
2019-05-13T14:50:13.192Z,100816.59
2019-05-13T14:52:42.405Z,100819.17
2019-05-13T14:55:11.696Z,100809.94
2019-05-13T14:57:41.933Z,100817.48
2019-05-13T15:00:11.915Z,100816.08
2019-05-13T15:02:42.126Z,100818.26
2019-05-13T15:05:12.142Z,100815.20
2019-05-13T15:07:42.676Z,100813.20
2019-05-13T15:10:13.709Z,100817.58
2019-05-13T15:12:44.030Z,100811.84
2019-05-13T15:15:14.530Z,100815.02
2019-05-13T15:17:43.724Z,100819.41
2019-05-13T15:20:14.198Z,100811.94
2019-05-13T15:22:43.966Z,100809.16
2019-05-13T15:25:15.733Z,100807.92
2019-05-13T15:27:52.541Z,100810.30
2019-05-13T15:30:22.371Z,100802.39
2019-05-13T15:32:53.135Z,100802.91
2019-05-13T15:35:22.295Z,100795.46
2019-05-13T15:37:53.857Z,100794.13
2019-05-13T15:40:23.375Z,100784.88
2019-05-13T15:42:53.636Z,100791.76
2019-05-13T15:45:23.923Z,100791.96
2019-05-13T15:47:54.144Z,100798.48
2019-05-13T15:50:23.303Z,100800.58
2019-05-13T15:52:52.522Z,100799.48
2019-05-13T15:55:21.966Z,100792.86
2019-05-13T15:57:51.904Z,100793.86
2019-05-13T16:00:22.705Z,100795.55
2019-05-13T16:02:52.329Z,100790.63
2019-05-13T16:05:22.521Z,100792.00
2019-05-13T16:07:52.382Z,100790.05
2019-05-13T16:10:21.689Z,100786.67
2019-05-13T16:12:51.807Z,100785.58
2019-05-13T16:15:21.718Z,100792.91
2019-05-13T16:17:53.015Z,100791.08
2019-05-13T16:20:24.734Z,100783.84
2019-05-13T16:22:57.318Z,100785.63
2019-05-13T16:25:28.537Z,100784.10
2019-05-13T16:28:01.609Z,100775.82
2019-05-13T16:30:32.255Z,100779.25
2019-05-13T16:33:02.968Z,100777.06
2019-05-13T16:35:32.712Z,100779.97
2019-05-13T16:38:03.375Z,100768.41
2019-05-13T16:40:36.410Z,100769.41
2019-05-13T16:43:04.057Z,100770.70
2019-05-13T16:45:34.690Z,100768.46
2019-05-13T16:48:06.686Z,100767.60
2019-05-13T16:50:37.080Z,100769.64
2019-05-13T16:53:06.597Z,100773.72
2019-05-13T16:55:36.081Z,100766.70
2019-05-13T16:58:05.266Z,100760.62
2019-05-13T17:00:34.449Z,100766.75
2019-05-13T17:03:03.646Z,100766.05
2019-05-13T17:05:35.227Z,100761.81
2019-05-13T17:08:05.488Z,100766.39
2019-05-13T17:10:41.990Z,100767.19
2019-05-13T17:13:15.988Z,100762.56
2019-05-13T17:15:47.618Z,100764.41
2019-05-13T17:18:18.031Z,100760.47
2019-05-13T17:20:49.105Z,100759.93
2019-05-13T17:23:19.227Z,100763.02
2019-05-13T17:25:52.062Z,100758.81
2019-05-13T17:28:22.105Z,100763.59
2019-05-13T17:30:54.989Z,100761.16
2019-05-13T17:33:24.087Z,100758.22
2019-05-13T17:35:53.277Z,100771.52
2019-05-13T17:38:22.448Z,100763.23
2019-05-13T17:40:53.809Z,100767.83
2019-05-13T17:43:25.069Z,100766.13
2019-05-13T17:45:58.238Z,100768.83
2019-05-13T17:48:29.625Z,100769.34
2019-05-13T17:51:01.863Z,100766.32
2019-05-13T17:53:33.063Z,100769.34
2019-05-13T17:56:03.757Z,100765.05
2019-05-13T17:58:34.550Z,100761.34
2019-05-13T18:01:04.064Z,100765.78
2019-05-13T18:03:33.238Z,100771.94
2019-05-13T18:06:03.293Z,100769.11
2019-05-13T18:08:34.582Z,100775.47
2019-05-13T18:11:04.395Z,100770.94
2019-05-13T18:13:33.594Z,100766.00
2019-05-13T18:16:02.909Z,100772.71
2019-05-13T18:18:43.078Z,100769.77
2019-05-13T18:21:03.272Z,100770.60
2019-05-13T18:23:32.442Z,100771.34
2019-05-13T18:26:02.489Z,100768.85
2019-05-13T18:28:32.545Z,100763.49
2019-05-13T18:31:01.989Z,100765.30
2019-05-13T18:33:31.884Z,100753.36
2019-05-13T18:36:02.058Z,100755.63
2019-05-13T18:38:35.935Z,100757.94
2019-05-13T18:41:09.322Z,100754.31
2019-05-13T18:43:41.379Z,100752.55
2019-05-13T18:46:12.369Z,100756.84
2019-05-13T18:48:57.739Z,100758.89
2019-05-13T18:51:27.187Z,100748.30
2019-05-13T18:54:01.147Z,100751.77
2019-05-13T18:56:32.317Z,100754.05
2019-05-13T18:59:03.032Z,100758.16
2019-05-13T19:01:32.499Z,100763.02
2019-05-13T19:04:03.221Z,100760.89
2019-05-13T19:06:33.623Z,100764.55
2019-05-13T19:09:05.961Z,100761.18
2019-05-13T19:11:36.142Z,100760.67
2019-05-13T19:14:08.123Z,100761.69
2019-05-13T19:16:42.098Z,100768.14
2019-05-13T19:19:16.242Z,100767.19
2019-05-13T19:21:43.526Z,100768.72
2019-05-13T19:24:13.413Z,100763.53
2019-05-13T19:26:44.083Z,100768.15
2019-05-13T19:29:13.252Z,100777.88
2019-05-13T19:31:44.915Z,100774.77
2019-05-13T19:34:17.563Z,100767.77
2019-05-13T19:36:51.732Z,100764.12
2019-05-13T19:39:31.201Z,100767.38
2019-05-13T19:42:02.795Z,100768.50
2019-05-13T19:44:35.209Z,100779.02
2019-05-13T19:47:04.418Z,100775.41
2019-05-13T19:49:37.162Z,100772.48
2019-05-13T19:52:11.844Z,100772.76
2019-05-13T19:54:42.786Z,100766.47
2019-05-13T19:57:21.121Z,100773.66
2019-05-13T19:59:54.703Z,100772.81
2019-05-13T20:02:25.882Z,100773.36
2019-05-13T20:05:01.232Z,100767.68
2019-05-13T20:07:33.823Z,100771.36
2019-05-13T20:10:05.000Z,100770.68
2019-05-13T20:12:41.962Z,100767.84
2019-05-13T20:15:17.640Z,100768.19
2019-05-13T20:17:52.132Z,100771.23
2019-05-13T20:20:23.603Z,100765.20
2019-05-13T20:22:57.386Z,100771.86
2019-05-13T20:25:31.191Z,100774.26
2019-05-13T20:28:02.629Z,100776.52
2019-05-13T20:30:32.730Z,100769.44
2019-05-13T20:33:04.392Z,100775.67
2019-05-13T20:35:35.098Z,100775.52
2019-05-13T20:38:04.726Z,100778.66
2019-05-13T20:40:34.245Z,100770.56
2019-05-13T20:43:03.679Z,100775.41
2019-05-13T20:45:33.874Z,100776.00
2019-05-13T20:48:03.328Z,100779.18
2019-05-13T20:50:33.679Z,100779.89
2019-05-13T20:53:03.624Z,100782.36
2019-05-13T20:55:36.557Z,100785.83
2019-05-13T20:58:06.112Z,100780.78
2019-05-13T21:00:35.306Z,100784.33
2019-05-13T21:03:04.746Z,100788.23
2019-05-13T21:05:36.017Z,100788.00
2019-05-13T21:08:05.500Z,100779.25
2019-05-13T21:10:46.213Z,100781.86
2019-05-13T21:13:21.325Z,100782.85
2019-05-13T21:15:52.031Z,100781.39
2019-05-13T21:18:22.294Z,100774.83
2019-05-13T21:20:53.915Z,100769.00
2019-05-13T21:23:27.219Z,100774.83
2019-05-13T21:26:01.855Z,100773.68
2019-05-13T21:28:44.001Z,100769.39
2019-05-13T21:31:17.380Z,100762.58
2019-05-13T21:33:51.397Z,100759.20
2019-05-13T21:36:22.683Z,100753.34
2019-05-13T21:38:53.114Z,100762.69
2019-05-13T21:41:26.738Z,100762.02
2019-05-13T21:44:01.381Z,100765.38
2019-05-13T21:46:31.808Z,100764.16
2019-05-13T21:49:05.470Z,100762.70
2019-05-13T21:51:41.976Z,100763.20
2019-05-13T21:54:17.671Z,100759.64
2019-05-13T21:56:51.603Z,100764.95
2019-05-13T21:59:25.631Z,100768.06
2019-05-13T22:01:58.171Z,100769.27
2019-05-13T22:04:29.752Z,100765.55
2019-05-13T22:07:02.412Z,100773.70
2019-05-13T22:09:38.746Z,100769.46
2019-05-13T22:12:12.977Z,100763.09
2019-05-13T22:14:44.406Z,100768.89
2019-05-13T22:17:16.758Z,100761.41
2019-05-13T22:19:51.247Z,100758.86
2019-05-13T22:22:22.097Z,100765.60
2019-05-13T22:24:52.765Z,100768.78
2019-05-13T22:27:24.095Z,100769.03
2019-05-13T22:30:11.710Z,100766.20
2019-05-13T22:32:47.252Z,100768.59
2019-05-13T22:35:21.728Z,100775.45
2019-05-13T22:38:01.753Z,100765.57
2019-05-13T22:40:37.884Z,100766.53
2019-05-13T22:43:12.173Z,100768.66
2019-05-13T22:45:45.723Z,100766.31
2019-05-13T22:48:22.263Z,100766.64
2019-05-13T22:51:01.347Z,100769.73
2019-05-13T22:53:32.114Z,100766.23
2019-05-13T22:56:02.293Z,100765.99
2019-05-13T22:58:33.045Z,100763.53
2019-05-13T23:01:03.349Z,100756.38
2019-05-13T23:03:33.123Z,100754.12
2019-05-13T23:06:02.323Z,100744.06
2019-05-13T23:08:32.454Z,100749.85
2019-05-13T23:11:02.179Z,100744.19
2019-05-13T23:13:31.590Z,100739.36
2019-05-13T23:16:02.316Z,100742.80
2019-05-13T23:18:31.913Z,100749.16
2019-05-13T23:21:02.256Z,100744.02
2019-05-13T23:23:31.891Z,100738.52
2019-05-13T23:26:01.457Z,100743.30
2019-05-13T23:28:32.298Z,100733.60
2019-05-13T23:31:04.393Z,100734.92
2019-05-13T23:33:33.932Z,100735.95
2019-05-13T23:36:03.831Z,100740.16
2019-05-13T23:38:33.305Z,100744.12
2019-05-13T23:41:02.468Z,100743.89
2019-05-13T23:43:31.954Z,100747.48
2019-05-13T23:46:01.494Z,100741.57
2019-05-13T23:48:32.079Z,100743.03
2019-05-13T23:51:01.993Z,100748.79
2019-05-13T23:53:31.918Z,100740.88
2019-05-13T23:56:04.468Z,100736.05
2019-05-13T23:58:36.089Z,100737.97
